createdAt,value
2023-09-08T04:01:48.990Z,10.32
2023-09-08T04:04:21.116Z,6.55
2023-09-08T04:06:53.266Z,8.30
2023-09-08T04:09:25.300Z,8.60
2023-09-08T04:11:57.461Z,8.77
2023-09-08T04:14:29.505Z,6.72
2023-09-08T04:17:02.891Z,9.57
2023-09-08T04:19:35.605Z,10.73
2023-09-08T04:22:07.716Z,10.57
2023-09-08T04:24:39.867Z,9.77
2023-09-08T04:27:14.466Z,11.48
2023-09-08T04:29:47.722Z,8.63
2023-09-08T04:32:21.177Z,7.82
2023-09-08T04:34:53.211Z,8.05
2023-09-08T04:37:25.284Z,9.02
2023-09-08T04:39:57.359Z,11.70
2023-09-08T04:42:29.492Z,7.93
2023-09-08T04:45:01.754Z,9.35
2023-09-08T04:47:35.149Z,9.68
2023-09-08T04:50:07.566Z,7.70
2023-09-08T04:52:39.716Z,9.98
2023-09-08T04:55:11.789Z,8.68
2023-09-08T04:57:43.869Z,6.97
2023-09-08T05:00:16.288Z,8.50
2023-09-08T05:02:49.821Z,7.47
2023-09-08T05:05:21.991Z,9.88
2023-09-08T05:07:54.045Z,6.15
2023-09-08T05:10:26.108Z,7.13
2023-09-08T05:12:58.162Z,6.55
2023-09-08T05:15:30.267Z,9.52
2023-09-08T05:18:03.909Z,8.85
2023-09-08T05:20:36.032Z,8.65
2023-09-08T05:23:08.067Z,9.10
2023-09-08T05:25:40.072Z,8.65
2023-09-08T05:28:12.186Z,9.23
2023-09-08T05:30:44.234Z,8.88
2023-09-08T05:33:17.707Z,7.60
2023-09-08T05:35:49.795Z,8.10
2023-09-08T05:38:21.847Z,7.72
2023-09-08T05:40:53.974Z,9.40
2023-09-08T05:43:26.740Z,10.85
2023-09-08T05:45:58.862Z,6.22
2023-09-08T05:48:32.807Z,11.77
2023-09-08T05:51:04.980Z,6.43
2023-09-08T05:53:37.125Z,12.57
2023-09-08T05:56:09.286Z,8.30
2023-09-08T05:58:41.400Z,5.57
2023-09-08T06:01:13.467Z,7.05
2023-09-08T06:03:46.987Z,6.40
2023-09-08T06:06:19.117Z,8.50
2023-09-08T06:08:51.184Z,10.73
2023-09-08T06:11:23.221Z,5.78
2023-09-08T06:13:55.264Z,5.82
2023-09-08T06:16:27.341Z,7.55
2023-09-08T06:19:00.735Z,8.75
2023-09-08T06:21:32.784Z,7.22
2023-09-08T06:24:05.165Z,5.75
2023-09-08T06:26:37.336Z,6.88
2023-09-08T06:29:09.387Z,10.90
2023-09-08T06:31:41.610Z,6.50
2023-09-08T06:34:15.182Z,7.72
2023-09-08T06:36:47.333Z,4.70
2023-09-08T06:39:19.377Z,7.30
2023-09-08T06:41:51.426Z,5.53
2023-09-08T06:44:23.481Z,5.20
2023-09-08T06:46:55.164Z,6.00
2023-09-08T06:49:28.203Z,5.55
2023-09-08T06:51:59.976Z,5.75
2023-09-08T06:54:31.624Z,6.82
2023-09-08T06:57:03.709Z,8.07
2023-09-08T06:59:35.386Z,5.20
2023-09-08T07:02:08.369Z,5.75
2023-09-08T07:04:41.679Z,7.05
2023-09-08T07:07:13.500Z,6.45
2023-09-08T07:09:45.253Z,4.47
2023-09-08T07:12:17.011Z,3.50
2023-09-08T07:14:48.733Z,4.60
2023-09-08T07:17:20.502Z,5.50
2023-09-08T07:19:53.625Z,15.30
2023-09-08T07:22:25.339Z,5.35
2023-09-08T07:24:57.026Z,4.82
2023-09-08T07:27:28.717Z,5.05
2023-09-08T07:30:00.479Z,6.40
2023-09-08T07:32:32.299Z,8.18
2023-09-08T07:35:05.734Z,5.93
2023-09-08T07:37:37.435Z,5.75
2023-09-08T07:40:10.675Z,5.00
2023-09-08T07:42:42.427Z,8.50
2023-09-08T07:45:14.104Z,6.80
2023-09-08T07:47:45.843Z,4.40
2023-09-08T07:50:20.429Z,6.32
2023-09-08T07:52:52.688Z,7.05
2023-09-08T07:55:24.457Z,6.45
2023-09-08T07:57:56.231Z,5.60
2023-09-08T08:00:27.901Z,10.00
2023-09-08T08:02:59.789Z,8.15
2023-09-08T08:05:32.960Z,8.88
2023-09-08T08:08:05.000Z,5.65
2023-09-08T08:10:36.691Z,6.95
2023-09-08T08:13:08.428Z,6.28
2023-09-08T08:15:40.952Z,8.88
2023-09-08T08:18:12.734Z,7.20
2023-09-08T08:20:45.910Z,7.15
2023-09-08T08:23:17.785Z,5.28
2023-09-08T08:25:49.864Z,9.23
2023-09-08T08:28:21.537Z,6.53
2023-09-08T08:30:53.273Z,6.28
2023-09-08T08:33:25.051Z,6.57
2023-09-08T08:35:58.111Z,8.70
2023-09-08T08:38:29.759Z,6.30
2023-09-08T08:41:04.987Z,6.97
2023-09-08T08:43:36.694Z,9.05
2023-09-08T08:46:08.445Z,8.70
2023-09-08T08:48:40.160Z,8.02
2023-09-08T08:51:13.213Z,7.60
2023-09-08T08:53:44.938Z,6.28
2023-09-08T08:56:16.618Z,6.85
2023-09-08T08:58:48.291Z,8.40
2023-09-08T09:01:20.152Z,12.02
2023-09-08T09:03:51.915Z,5.75
2023-09-08T09:06:24.969Z,8.95
2023-09-08T09:08:56.654Z,5.75
2023-09-08T09:11:28.333Z,9.30
2023-09-08T09:14:00.116Z,7.13
2023-09-08T09:16:31.803Z,6.90
2023-09-08T09:19:03.525Z,7.70
2023-09-08T09:21:46.363Z,6.35
2023-09-08T09:24:20.859Z,5.28
2023-09-08T09:26:52.983Z,8.00
2023-09-08T09:29:24.641Z,7.18
2023-09-08T09:31:57.378Z,5.53
2023-09-08T09:34:29.028Z,6.80
2023-09-08T09:37:02.063Z,6.55
2023-09-08T09:39:33.748Z,5.70
2023-09-08T09:42:05.869Z,6.72
2023-09-08T09:44:37.569Z,8.02
2023-09-08T09:47:09.270Z,5.53
2023-09-08T09:49:42.896Z,7.60
2023-09-08T09:52:21.860Z,15.70
2023-09-08T09:54:53.803Z,8.93
2023-09-08T09:57:25.502Z,9.48
2023-09-08T09:59:57.196Z,8.35
2023-09-08T10:02:29.047Z,7.88
2023-09-08T10:05:00.727Z,7.43
2023-09-08T10:07:33.758Z,9.90
2023-09-08T10:10:06.279Z,8.23
2023-09-08T10:12:38.129Z,5.72
2023-09-08T10:15:10.152Z,9.23
2023-09-08T10:17:42.125Z,4.80
2023-09-08T10:20:13.828Z,5.05
2023-09-08T10:22:48.073Z,7.78
2023-09-08T10:25:19.781Z,6.80
2023-09-08T10:27:51.776Z,6.95
2023-09-08T10:30:23.480Z,6.45
2023-09-08T10:32:55.291Z,6.72
2023-09-08T10:35:27.024Z,7.20
2023-09-08T10:38:23.407Z,9.13
2023-09-08T10:41:15.321Z,6.28
2023-09-08T10:43:47.172Z,5.25
2023-09-08T10:46:22.736Z,7.03
2023-09-08T10:48:54.636Z,7.45
2023-09-08T10:51:26.429Z,9.35
2023-09-08T10:53:59.476Z,7.20
2023-09-08T10:56:48.850Z,5.07
2023-09-08T10:59:20.609Z,6.65
2023-09-08T11:01:52.286Z,8.63
2023-09-08T11:04:24.710Z,8.50
2023-09-08T11:06:57.666Z,5.18
2023-09-08T11:09:36.066Z,7.20
2023-09-08T11:12:08.532Z,7.97
2023-09-08T11:14:40.245Z,6.65
2023-09-08T11:17:11.955Z,6.70
2023-09-08T11:19:45.641Z,5.72
2023-09-08T11:22:17.440Z,8.85
2023-09-08T11:24:50.470Z,9.38
2023-09-08T11:27:22.196Z,4.97
2023-09-08T11:29:53.901Z,4.93
2023-09-08T11:32:25.680Z,5.10
2023-09-08T11:34:57.380Z,5.25
2023-09-08T11:37:29.055Z,10.38
2023-09-08T11:40:02.197Z,9.63
2023-09-08T11:42:34.018Z,16.00
2023-09-08T11:45:06.418Z,9.40
2023-09-08T11:47:38.129Z,14.02
2023-09-08T11:50:10.353Z,6.47
2023-09-08T11:52:42.803Z,8.15
2023-09-08T11:55:16.250Z,7.57
2023-09-08T11:57:49.695Z,7.65
2023-09-08T12:00:21.855Z,6.53
2023-09-08T12:02:53.546Z,7.43
2023-09-08T12:05:25.973Z,5.38
2023-09-08T12:07:58.391Z,6.60
2023-09-08T12:10:31.496Z,7.53
2023-09-08T12:13:03.269Z,5.78
2023-09-08T12:15:35.963Z,7.20
2023-09-08T12:18:08.695Z,4.38
2023-09-08T12:20:40.773Z,5.22
2023-09-08T12:23:19.284Z,7.47
2023-09-08T12:25:52.872Z,6.50
2023-09-08T12:28:24.667Z,5.35
2023-09-08T12:30:56.404Z,8.18
2023-09-08T12:33:28.094Z,3.90
2023-09-08T12:35:59.821Z,6.97
2023-09-08T12:38:32.041Z,4.95
2023-09-08T12:41:05.076Z,4.55
2023-09-08T12:43:36.788Z,6.28
2023-09-08T12:46:08.571Z,8.38
2023-09-08T12:48:40.325Z,9.50
2023-09-08T12:51:12.036Z,7.13
2023-09-08T12:53:43.746Z,5.78
2023-09-08T12:56:16.827Z,4.43
2023-09-08T12:58:48.514Z,7.32
2023-09-08T13:01:20.247Z,7.07
2023-09-08T13:03:52.006Z,8.48
2023-09-08T13:06:23.719Z,6.45
2023-09-08T13:08:55.379Z,4.25
2023-09-08T13:11:28.983Z,5.43
2023-09-08T13:14:00.712Z,4.95
2023-09-08T13:16:33.027Z,5.85
2023-09-08T13:19:05.374Z,4.78
2023-09-08T13:21:37.059Z,7.93
2023-09-08T13:24:09.849Z,5.72
2023-09-08T13:26:42.913Z,6.75
2023-09-08T13:29:14.738Z,6.30
2023-09-08T13:31:46.478Z,5.38
2023-09-08T13:34:18.778Z,4.40
2023-09-08T13:36:50.737Z,5.60
2023-09-08T13:39:22.422Z,7.43
2023-09-08T13:41:55.940Z,8.23
2023-09-08T13:44:27.886Z,6.82
2023-09-08T13:46:59.846Z,5.80
2023-09-08T13:49:32.810Z,6.32
2023-09-08T13:52:06.495Z,8.00
2023-09-08T13:54:40.503Z,5.35
2023-09-08T13:57:14.672Z,8.55
2023-09-08T13:59:49.428Z,9.32
2023-09-08T14:05:00.643Z,3.95
2023-09-08T14:07:37.786Z,7.97
2023-09-08T14:10:28.566Z,4.70
2023-09-08T14:13:03.356Z,5.88
2023-09-08T14:15:35.100Z,3.95
2023-09-08T14:18:07.005Z,6.90
2023-09-08T14:20:38.704Z,4.00
2023-09-08T14:23:10.404Z,4.10
2023-09-08T14:25:42.124Z,7.28
2023-09-08T14:28:15.148Z,5.85
2023-09-08T14:30:46.854Z,6.90
2023-09-08T14:33:18.594Z,6.35
2023-09-08T14:35:50.373Z,6.03
2023-09-08T14:38:22.094Z,4.85
2023-09-08T14:40:57.283Z,3.88
2023-09-08T14:43:30.486Z,6.60
2023-09-08T14:46:02.203Z,7.78
2023-09-08T14:48:33.922Z,6.05
2023-09-08T14:51:05.626Z,6.07
2023-09-08T14:53:37.492Z,7.57
2023-09-08T14:56:09.323Z,7.20
2023-09-08T14:58:42.377Z,6.93
2023-09-08T15:01:14.108Z,8.30
2023-09-08T15:03:45.878Z,4.63
2023-09-08T15:06:17.645Z,5.68
2023-09-08T15:08:49.308Z,4.90
2023-09-08T15:11:21.041Z,6.45
2023-09-08T15:13:54.090Z,4.57
2023-09-08T15:16:25.860Z,7.63
2023-09-08T15:18:58.200Z,8.00
2023-09-08T15:21:30.039Z,5.97
2023-09-08T15:24:01.713Z,6.55
2023-09-08T15:26:33.378Z,4.97
2023-09-08T15:29:06.471Z,5.57
2023-09-08T15:31:38.311Z,6.22
2023-09-08T15:34:10.086Z,5.70
2023-09-08T15:36:41.791Z,4.68
2023-09-08T15:39:13.536Z,6.07
2023-09-08T15:41:45.225Z,3.70
2023-09-08T15:44:19.398Z,7.30
2023-09-08T15:46:51.085Z,5.63
2023-09-08T15:49:23.404Z,7.65
2023-09-08T15:52:08.911Z,6.57
2023-09-08T15:54:47.034Z,6.30
2023-09-08T15:57:18.736Z,4.57
2023-09-08T15:59:51.799Z,5.90
2023-09-08T16:02:23.633Z,8.32
2023-09-08T16:04:55.504Z,6.07
2023-09-08T16:07:27.239Z,7.43
2023-09-08T16:09:58.921Z,5.18
2023-09-08T16:12:30.645Z,4.65
2023-09-08T16:15:04.122Z,4.60
2023-09-08T16:17:35.884Z,5.22
2023-09-08T16:20:08.485Z,6.68
2023-09-08T16:22:40.190Z,6.95
2023-09-08T16:25:11.917Z,6.68
2023-09-08T16:27:43.683Z,5.82
2023-09-08T16:30:16.878Z,8.10
2023-09-08T16:32:48.576Z,5.88
2023-09-08T16:35:20.275Z,7.47
2023-09-08T16:37:51.937Z,5.93
2023-09-08T16:40:23.748Z,4.70
2023-09-08T16:42:55.573Z,7.32
2023-09-08T16:45:28.590Z,8.38
2023-09-08T16:48:00.358Z,5.88
2023-09-08T16:50:32.061Z,5.05
2023-09-08T16:53:03.912Z,4.95
2023-09-08T16:55:35.580Z,6.15
2023-09-08T16:58:07.249Z,5.85
2023-09-08T17:00:40.271Z,5.43
2023-09-08T17:03:13.113Z,5.13
2023-09-08T17:05:44.927Z,4.10
2023-09-08T17:08:16.649Z,5.65
2023-09-08T17:10:48.357Z,5.10
2023-09-08T17:13:20.030Z,4.53
2023-09-08T17:15:53.089Z,5.75
2023-09-08T17:18:24.840Z,7.03
2023-09-08T17:20:56.579Z,5.50
2023-09-08T17:23:28.355Z,6.72
2023-09-08T17:26:00.039Z,7.50
2023-09-08T17:28:33.981Z,5.28
2023-09-08T17:31:08.787Z,6.47
2023-09-08T17:33:40.796Z,7.05
2023-09-08T17:36:12.705Z,8.23
2023-09-08T17:38:44.441Z,6.70
2023-09-08T17:41:16.138Z,5.68
2023-09-08T17:43:47.826Z,7.13
2023-09-08T17:46:20.914Z,5.82
2023-09-08T17:48:52.767Z,8.70
2023-09-08T17:51:24.471Z,6.18
2023-09-08T17:53:56.128Z,8.80
2023-09-08T17:56:27.795Z,8.65
2023-09-08T17:58:59.454Z,10.40
2023-09-08T18:01:32.544Z,9.07
2023-09-08T18:04:04.878Z,7.50
2023-09-08T18:06:36.695Z,14.85
2023-09-08T18:09:08.531Z,6.95
2023-09-08T18:11:40.273Z,8.55
2023-09-08T18:14:12.814Z,8.68
2023-09-08T18:16:45.844Z,6.85
2023-09-08T18:19:17.804Z,7.80
2023-09-08T18:21:49.524Z,8.10
2023-09-08T18:24:21.232Z,6.82
2023-09-08T18:26:52.940Z,8.18
2023-09-08T18:29:24.617Z,9.48
2023-09-08T18:31:58.761Z,9.68
2023-09-08T18:34:30.493Z,10.75
2023-09-08T18:37:02.155Z,6.63
2023-09-08T18:39:33.847Z,8.10
2023-09-08T18:42:05.720Z,6.65
2023-09-08T18:44:37.425Z,9.73
2023-09-08T18:47:10.725Z,9.75
2023-09-08T18:49:42.575Z,8.27
2023-09-08T18:52:14.231Z,9.80
2023-09-08T18:54:45.922Z,11.38
2023-09-08T18:57:17.579Z,10.38
2023-09-08T18:59:50.075Z,10.35
2023-09-08T19:02:23.272Z,8.75
2023-09-08T19:04:55.159Z,8.63
2023-09-08T19:07:26.971Z,8.68
2023-09-08T19:09:58.669Z,7.38
2023-09-08T19:12:30.375Z,11.10
2023-09-08T19:15:02.176Z,11.93
2023-09-08T19:17:35.330Z,10.35
2023-09-08T19:20:08.563Z,8.98
2023-09-08T19:22:40.305Z,11.07
2023-09-08T19:25:12.039Z,10.00
2023-09-08T19:27:43.786Z,9.95
2023-09-08T19:30:16.323Z,12.13
2023-09-08T19:32:49.393Z,16.67
2023-09-08T19:35:21.145Z,7.28
2023-09-08T19:37:52.903Z,8.98
2023-09-08T19:40:24.647Z,8.82
2023-09-08T19:42:56.341Z,9.15
2023-09-08T19:45:27.979Z,10.07
2023-09-08T19:48:01.129Z,17.65
2023-09-08T19:50:32.919Z,17.80
2023-09-08T19:53:05.025Z,18.50
2023-09-08T19:55:36.804Z,35.08
2023-09-08T19:58:08.480Z,36.35
2023-09-08T20:00:40.165Z,34.38
2023-09-08T20:03:13.306Z,49.08
2023-09-08T20:05:45.170Z,37.63
2023-09-08T20:08:16.840Z,53.35
2023-09-08T20:10:51.611Z,27.23
2023-09-08T20:13:23.305Z,22.23
2023-09-08T20:16:01.324Z,31.23
2023-09-08T20:18:34.711Z,20.17
2023-09-08T20:21:06.547Z,10.75
2023-09-08T20:23:38.358Z,18.23
2023-09-08T20:26:10.333Z,22.30
2023-09-08T20:28:42.011Z,26.33
2023-09-08T20:31:16.734Z,18.20
2023-09-08T20:33:50.554Z,25.33
2023-09-08T20:36:22.233Z,25.95
2023-09-08T20:38:53.904Z,23.55
2023-09-08T20:41:25.605Z,34.22
2023-09-08T20:43:57.329Z,46.75
2023-09-08T20:46:29.102Z,38.15
2023-09-08T20:49:02.155Z,19.75
2023-09-08T20:51:33.840Z,27.17
2023-09-08T20:54:05.997Z,32.05
2023-09-08T20:56:38.317Z,27.77
2023-09-08T20:59:10.020Z,31.65
2023-09-08T21:01:41.813Z,28.33
2023-09-08T21:04:14.939Z,29.08
2023-09-08T21:06:46.695Z,25.30
2023-09-08T21:09:18.427Z,15.35
2023-09-08T21:11:50.202Z,28.92
2023-09-08T21:14:22.980Z,16.30
2023-09-08T21:16:54.664Z,19.95
2023-09-08T21:19:27.692Z,18.70
2023-09-08T21:21:59.439Z,20.17
2023-09-08T21:24:31.132Z,18.27
2023-09-08T21:27:02.874Z,27.70
2023-09-08T21:29:34.743Z,18.80
2023-09-08T21:32:06.644Z,15.63
2023-09-08T21:34:39.708Z,14.70
2023-09-08T21:37:11.403Z,17.10
2023-09-08T21:39:43.073Z,18.85
2023-09-08T21:42:14.826Z,12.93
2023-09-08T21:44:46.550Z,10.98
2023-09-08T21:47:18.211Z,24.58
2023-09-08T21:49:51.314Z,13.65
2023-09-08T21:52:35.842Z,11.10
2023-09-08T21:55:10.299Z,9.20
2023-09-08T21:57:42.036Z,11.80
